createdAt,value
2022-08-05T00:00:18.766Z,24.09
2022-08-05T00:02:51.317Z,24.15
2022-08-05T00:06:03.030Z,24.14
2022-08-05T00:08:32.719Z,24.11
2022-08-05T00:11:01.418Z,24.01
2022-08-05T00:13:39.192Z,23.98
2022-08-05T00:16:12.237Z,23.95
2022-08-05T00:18:42.874Z,23.96
2022-08-05T00:21:14.512Z,23.95
2022-08-05T00:23:46.009Z,23.87
2022-08-05T00:26:16.332Z,23.79
2022-08-05T00:28:45.886Z,23.79
2022-08-05T00:31:13.684Z,23.80
2022-08-05T00:34:54.892Z,23.81
2022-08-05T00:37:09.861Z,23.80
2022-08-05T00:39:15.354Z,23.72
2022-08-05T00:41:46.794Z,23.64
2022-08-05T00:44:30.387Z,23.53
2022-08-05T00:47:01.943Z,23.55
2022-08-05T00:49:33.104Z,23.63
2022-08-05T00:52:28.410Z,23.52
2022-08-05T00:54:56.281Z,23.44
2022-08-05T00:57:25.361Z,23.45
2022-08-05T01:00:07.323Z,23.52
2022-08-05T01:02:38.679Z,23.49
2022-08-05T01:05:09.966Z,23.46
2022-08-05T01:07:37.389Z,23.44
2022-08-05T01:10:29.643Z,23.34
2022-08-05T01:13:12.960Z,23.25
2022-08-05T01:15:52.441Z,23.19
2022-08-05T01:18:31.995Z,23.21
2022-08-05T01:21:02.589Z,23.25
2022-08-05T01:23:35.587Z,23.23
2022-08-05T01:26:18.264Z,23.20
2022-08-05T01:28:57.441Z,23.26
2022-08-05T01:31:45.165Z,23.17
2022-08-05T01:34:35.881Z,23.19
2022-08-05T01:37:08.970Z,23.15
2022-08-05T01:39:47.169Z,23.06
2022-08-05T01:42:17.937Z,23.00
2022-08-05T01:44:54.060Z,22.86
2022-08-05T01:47:23.019Z,22.82
2022-08-05T01:50:01.277Z,22.68
2022-08-05T01:52:30.678Z,22.67
2022-08-05T01:55:02.315Z,22.74
2022-08-05T01:58:29.707Z,22.69
2022-08-05T02:00:30.627Z,22.53
2022-08-05T02:03:04.080Z,22.38
2022-08-05T02:05:34.336Z,22.28
2022-08-05T02:08:03.978Z,22.25
2022-08-05T02:10:40.592Z,22.25
2022-08-05T02:13:16.146Z,22.19
2022-08-05T02:15:51.299Z,22.19
2022-08-05T02:18:32.645Z,22.11
2022-08-05T02:21:14.657Z,22.15
2022-08-05T02:23:44.733Z,22.05
2022-08-05T02:26:17.211Z,21.96
2022-08-05T02:28:45.991Z,21.92
2022-08-05T02:31:22.544Z,21.91
2022-08-05T02:33:58.658Z,21.89
2022-08-05T02:36:31.190Z,21.77
2022-08-05T02:39:00.674Z,21.76
2022-08-05T02:41:42.991Z,21.70
2022-08-05T02:44:16.229Z,21.69
2022-08-05T02:46:59.903Z,21.69
2022-08-05T02:49:36.434Z,21.66
2022-08-05T02:52:09.541Z,21.72
2022-08-05T02:54:41.025Z,21.66
2022-08-05T02:58:09.654Z,21.71
2022-08-05T03:00:01.447Z,21.71
2022-08-05T03:02:33.173Z,21.73
2022-08-05T03:05:01.198Z,21.76
2022-08-05T03:08:01.183Z,21.79
2022-08-05T03:10:24.615Z,21.77
2022-08-05T03:12:54.074Z,21.80
2022-08-05T03:15:23.627Z,21.86
2022-08-05T03:17:55.851Z,21.79
2022-08-05T03:20:24.502Z,21.84
2022-08-05T03:22:57.184Z,21.78
2022-08-05T03:26:03.681Z,21.83
2022-08-05T03:28:14.084Z,21.92
2022-08-05T03:30:42.662Z,21.87
2022-08-05T03:33:09.923Z,21.97
2022-08-05T03:35:40.854Z,21.99
2022-08-05T03:38:12.705Z,21.98
2022-08-05T03:40:45.052Z,22.15
2022-08-05T03:44:09.830Z,22.28
2022-08-05T03:46:03.994Z,22.36
2022-08-05T03:48:35.457Z,22.42
2022-08-05T03:52:48.553Z,22.43
2022-08-05T03:56:04.637Z,22.43
2022-08-05T03:57:00.341Z,22.48
2022-08-05T03:59:46.777Z,22.54
2022-08-05T04:02:37.604Z,22.50
2022-08-05T04:05:09.611Z,22.61
2022-08-05T04:07:53.081Z,22.61
2022-08-05T04:10:33.273Z,22.70
2022-08-05T04:13:06.571Z,22.76
2022-08-05T04:15:36.519Z,22.82
2022-08-05T04:18:07.432Z,22.89
2022-08-05T04:20:35.284Z,23.04
2022-08-05T04:23:02.725Z,23.06
2022-08-05T04:25:56.543Z,23.12
2022-08-05T04:28:19.505Z,23.24
2022-08-05T04:30:47.149Z,23.26
2022-08-05T04:33:15.596Z,23.36
2022-08-05T04:36:16.556Z,23.49
2022-08-05T04:38:39.950Z,23.56
2022-08-05T04:41:09.610Z,23.73
2022-08-05T04:43:46.509Z,23.76
2022-08-05T04:46:28.473Z,23.89
2022-08-05T04:48:58.024Z,23.97
2022-08-05T04:51:26.253Z,23.93
2022-08-05T04:53:57.860Z,24.07
2022-08-05T04:56:34.280Z,24.05
2022-08-05T04:59:21.854Z,24.21
2022-08-05T05:02:36.166Z,24.25
2022-08-05T05:04:47.537Z,24.10
2022-08-05T05:07:17.756Z,24.29
2022-08-05T05:09:45.540Z,24.37
2022-08-05T05:12:12.753Z,24.43
2022-08-05T05:14:49.103Z,24.53
2022-08-05T05:17:23.457Z,24.60
2022-08-05T05:19:56.363Z,24.70
2022-08-05T05:22:26.619Z,24.79
2022-08-05T05:24:57.757Z,24.87
2022-08-05T05:27:41.280Z,24.92
2022-08-05T05:30:15.590Z,25.03
2022-08-05T05:33:00.247Z,25.13
2022-08-05T05:35:34.129Z,25.18
2022-08-05T05:38:09.347Z,25.26
2022-08-05T05:40:48.249Z,25.42
2022-08-05T05:43:28.194Z,25.51
2022-08-05T05:46:12.265Z,25.51
2022-08-05T05:48:44.246Z,25.55
2022-08-05T05:51:15.159Z,25.56
2022-08-05T05:53:54.206Z,25.53
2022-08-05T05:56:32.347Z,25.58
2022-08-05T05:59:05.661Z,25.71
2022-08-05T06:01:37.910Z,25.85
2022-08-05T06:04:07.766Z,25.83
2022-08-05T06:06:36.033Z,25.99
2022-08-05T06:09:04.932Z,26.13
2022-08-05T06:11:33.009Z,26.18
2022-08-05T06:14:00.824Z,26.14
2022-08-05T06:16:36.973Z,26.06
2022-08-05T06:19:07.082Z,26.19
2022-08-05T06:21:37.401Z,26.29
2022-08-05T06:24:07.705Z,26.30
2022-08-05T06:26:52.391Z,26.43
2022-08-05T06:29:43.059Z,26.56
2022-08-05T06:32:17.277Z,26.64
2022-08-05T06:34:56.432Z,26.72
2022-08-05T06:37:56.611Z,26.85
2022-08-05T06:40:20.560Z,26.99
2022-08-05T06:42:52.734Z,27.18
2022-08-05T06:45:45.136Z,27.18
2022-08-05T06:48:36.685Z,27.06
2022-08-05T06:50:57.003Z,27.34
2022-08-05T06:53:28.258Z,27.47
2022-08-05T06:56:00.306Z,27.52
2022-08-05T06:58:35.152Z,27.60
2022-08-05T07:01:06.242Z,27.70
2022-08-05T07:03:34.178Z,27.69
2022-08-05T07:06:05.907Z,27.85
2022-08-05T07:08:47.732Z,27.93
2022-08-05T07:11:21.886Z,27.97
2022-08-05T07:14:20.645Z,28.00
2022-08-05T07:18:02.049Z,28.01
2022-08-05T07:20:34.169Z,28.14
2022-08-05T07:22:38.276Z,28.41
2022-08-05T07:25:22.675Z,28.52
2022-08-05T07:27:56.591Z,28.35
2022-08-05T07:30:32.909Z,28.44
2022-08-05T07:33:05.066Z,28.75
2022-08-05T07:36:02.249Z,28.88
2022-08-05T07:38:32.581Z,29.04
2022-08-05T07:42:07.743Z,28.92
2022-08-05T07:43:58.901Z,28.93
2022-08-05T07:46:27.854Z,29.05
2022-08-05T07:49:02.777Z,28.97
2022-08-05T07:51:36.930Z,29.23
2022-08-05T07:54:06.406Z,29.49
2022-08-05T07:56:59.841Z,29.54
2022-08-05T07:59:30.991Z,29.40
2022-08-05T08:02:15.483Z,29.45
2022-08-05T08:04:46.702Z,29.47
2022-08-05T08:07:14.191Z,29.63
2022-08-05T08:09:43.237Z,29.89
2022-08-05T08:12:35.036Z,29.94
2022-08-05T08:15:02.726Z,29.95
2022-08-05T08:17:32.200Z,30.01
2022-08-05T08:20:21.107Z,30.02
2022-08-05T08:22:59.965Z,30.06
2022-08-05T08:25:59.679Z,30.07
2022-08-05T08:28:36.183Z,30.31
2022-08-05T08:31:08.533Z,30.48
2022-08-05T08:33:37.939Z,30.66
2022-08-05T08:38:56.817Z,31.15
2022-08-05T08:41:51.199Z,31.17
2022-08-05T08:45:23.664Z,31.13
2022-08-05T08:47:47.699Z,30.92
2022-08-05T08:50:23.438Z,31.11
2022-08-05T08:52:51.483Z,31.19
2022-08-05T08:56:01.756Z,31.28
2022-08-05T08:58:13.254Z,31.43
2022-08-05T09:00:42.657Z,31.55
2022-08-05T09:03:11.420Z,31.73
2022-08-05T09:06:08.010Z,32.01
2022-08-05T09:08:30.043Z,31.97
2022-08-05T09:10:58.250Z,32.08
2022-08-05T09:13:25.509Z,32.12
2022-08-05T09:15:59.621Z,31.99
2022-08-05T09:18:27.348Z,31.97
2022-08-05T09:20:54.692Z,32.00
2022-08-05T09:23:23.520Z,32.27
2022-08-05T09:26:10.324Z,32.35
2022-08-05T09:28:43.616Z,32.70
2022-08-05T09:31:43.508Z,32.82
2022-08-05T09:34:05.843Z,32.96
2022-08-05T09:36:56.279Z,33.17
2022-08-05T09:39:41.298Z,33.22
2022-08-05T09:42:25.274Z,33.01
2022-08-05T09:44:57.379Z,33.22
2022-08-05T09:47:48.469Z,33.18
2022-08-05T09:50:38.814Z,33.60
2022-08-05T09:53:09.087Z,33.88
2022-08-05T09:55:58.137Z,34.00
2022-08-05T09:58:29.161Z,34.16
2022-08-05T10:01:14.982Z,34.10
2022-08-05T10:04:11.074Z,33.76
2022-08-05T10:06:54.723Z,34.00
2022-08-05T10:09:27.443Z,34.29
2022-08-05T10:12:30.736Z,34.36
2022-08-05T10:15:13.496Z,34.46
2022-08-05T10:17:47.399Z,34.50
2022-08-05T10:20:25.576Z,34.60
2022-08-05T10:22:52.945Z,34.36
2022-08-05T10:25:20.519Z,34.19
2022-08-05T10:28:13.910Z,34.04
2022-08-05T10:31:20.393Z,34.05
2022-08-05T10:33:28.783Z,34.23
2022-08-05T10:35:59.677Z,34.52
2022-08-05T10:38:29.242Z,34.09
2022-08-05T10:41:06.259Z,34.31
2022-08-05T10:43:45.773Z,34.64
2022-08-05T10:46:16.815Z,34.83
2022-08-05T10:48:52.860Z,34.57
2022-08-05T10:51:29.144Z,34.55
2022-08-05T10:54:01.793Z,34.79
2022-08-05T10:56:45.087Z,34.85
2022-08-05T11:00:02.938Z,34.79
2022-08-05T11:02:08.641Z,35.10
2022-08-05T11:04:48.954Z,35.01
2022-08-05T11:07:18.558Z,34.60
2022-08-05T11:10:04.057Z,34.90
2022-08-05T11:12:38.331Z,34.85
2022-08-05T11:15:20.872Z,35.30
2022-08-05T11:17:59.717Z,35.25
2022-08-05T11:20:39.202Z,35.10
2022-08-05T11:23:33.589Z,35.08
2022-08-05T11:26:28.101Z,34.91
2022-08-05T11:29:06.829Z,35.36
2022-08-05T11:31:58.123Z,35.32
2022-08-05T11:34:51.608Z,35.17
2022-08-05T11:38:29.937Z,35.18
2022-08-05T11:41:36.820Z,35.31
2022-08-05T11:44:07.001Z,35.74
2022-08-05T11:46:58.167Z,35.88
2022-08-05T11:49:37.548Z,36.26
2022-08-05T11:52:11.115Z,36.45
2022-08-05T11:54:43.520Z,36.26
2022-08-05T11:57:24.966Z,36.21
2022-08-05T11:59:55.414Z,36.50
2022-08-05T12:02:33.022Z,35.62
2022-08-05T12:05:06.871Z,35.53
2022-08-05T12:08:08.074Z,35.37
2022-08-05T12:10:43.652Z,35.00
2022-08-05T12:13:27.736Z,35.26
2022-08-05T12:16:14.653Z,35.89
2022-08-05T12:18:49.523Z,36.44
2022-08-05T12:21:21.791Z,36.16
2022-08-05T12:24:00.028Z,36.46
2022-08-05T12:26:36.108Z,36.47
2022-08-05T12:29:05.791Z,36.26
2022-08-05T12:31:43.773Z,36.70
2022-08-05T12:34:14.689Z,36.21
2022-08-05T12:36:50.403Z,36.10
2022-08-05T12:39:17.850Z,36.72
2022-08-05T12:41:46.141Z,37.02
2022-08-05T12:44:28.562Z,37.29
2022-08-05T12:47:01.850Z,36.76
2022-08-05T12:50:04.594Z,36.42
2022-08-05T12:52:38.591Z,36.47
2022-08-05T12:55:22.157Z,36.32
2022-08-05T12:58:50.148Z,36.57
2022-08-05T13:02:01.802Z,37.11
2022-08-05T13:03:32.564Z,37.45
2022-08-05T13:06:01.583Z,36.84
2022-08-05T13:08:32.999Z,36.89
2022-08-05T13:11:01.716Z,36.65
2022-08-05T13:14:05.367Z,36.62
2022-08-05T13:16:19.961Z,36.27
2022-08-05T13:18:57.637Z,36.14
2022-08-05T13:21:28.480Z,36.43
2022-08-05T13:24:08.770Z,36.85
2022-08-05T13:26:36.511Z,36.89
2022-08-05T13:29:05.079Z,37.14
2022-08-05T13:32:03.311Z,37.57
2022-08-05T13:34:25.927Z,37.31
2022-08-05T13:36:54.446Z,37.58
2022-08-05T13:40:13.858Z,38.09
2022-08-05T13:42:14.522Z,38.12
2022-08-05T13:44:45.413Z,37.35
2022-08-05T13:47:34.946Z,37.00
2022-08-05T13:50:04.566Z,37.09
2022-08-05T13:52:32.311Z,37.29
2022-08-05T13:55:07.895Z,37.32
2022-08-05T13:57:48.527Z,37.19
2022-08-05T14:00:27.304Z,36.85
2022-08-05T14:02:58.350Z,36.87
2022-08-05T14:05:48.243Z,37.08
2022-08-05T14:08:20.074Z,37.29
2022-08-05T14:10:48.913Z,37.40
2022-08-05T14:13:16.388Z,37.39
2022-08-05T14:16:08.394Z,37.34
2022-08-05T14:18:31.037Z,37.52
2022-08-05T14:20:59.331Z,37.08
2022-08-05T14:23:28.815Z,37.05
2022-08-05T14:26:04.833Z,37.06
2022-08-05T14:28:33.467Z,37.76
2022-08-05T14:31:01.755Z,38.22
2022-08-05T14:33:32.575Z,38.59
2022-08-05T14:36:20.436Z,38.75
2022-08-05T14:38:49.359Z,39.04
2022-08-05T14:41:17.803Z,38.05
2022-08-05T14:43:59.434Z,38.40
2022-08-05T14:46:30.839Z,38.69
2022-08-05T14:49:06.555Z,39.25
2022-08-05T14:51:42.577Z,39.51
2022-08-05T14:54:28.425Z,39.58
2022-08-05T14:56:58.490Z,38.71
2022-08-05T14:59:29.438Z,37.54
2022-08-05T15:01:57.704Z,37.62
2022-08-05T15:04:27.361Z,37.80
2022-08-05T15:06:56.408Z,38.68
2022-08-05T15:09:51.618Z,38.33
2022-08-05T15:12:11.593Z,37.71
2022-08-05T15:14:50.154Z,37.93
2022-08-05T15:17:45.896Z,37.98
2022-08-05T15:20:09.786Z,37.98
2022-08-05T15:22:44.824Z,38.30
2022-08-05T15:25:14.316Z,38.29
2022-08-05T15:27:42.740Z,38.45
2022-08-05T15:30:11.186Z,38.51
2022-08-05T15:32:41.466Z,38.34
2022-08-05T15:35:10.535Z,38.54
2022-08-05T15:38:34.455Z,38.05
2022-08-05T15:41:00.284Z,37.88
2022-08-05T15:43:20.301Z,38.05
2022-08-05T15:45:59.786Z,38.17
2022-08-05T15:48:29.896Z,37.68
2022-08-05T15:50:58.291Z,37.42
2022-08-05T15:53:38.307Z,37.61
2022-08-05T15:56:17.903Z,37.77
2022-08-05T15:58:46.359Z,38.09
2022-08-05T16:01:17.303Z,38.22
2022-08-05T16:03:48.557Z,38.23
2022-08-05T16:06:20.315Z,38.38
2022-08-05T16:08:51.288Z,37.68
2022-08-05T16:11:39.993Z,38.40
2022-08-05T16:14:09.622Z,39.28
2022-08-05T16:16:36.811Z,39.04
2022-08-05T16:19:04.559Z,39.17
2022-08-05T16:22:01.004Z,39.17
2022-08-05T16:24:41.083Z,38.19
2022-08-05T16:27:07.385Z,38.33
2022-08-05T16:29:37.454Z,38.08
2022-08-05T16:32:06.642Z,37.73
2022-08-05T16:34:39.360Z,37.95
2022-08-05T16:38:02.602Z,38.97
2022-08-05T16:40:05.332Z,38.27
2022-08-05T16:42:35.446Z,37.73
2022-08-05T16:45:05.970Z,38.03
2022-08-05T16:47:54.390Z,38.02
2022-08-05T16:50:24.758Z,37.75
2022-08-05T16:52:51.852Z,38.16
2022-08-05T16:55:20.431Z,38.68
2022-08-05T16:58:00.065Z,38.52
2022-08-05T17:00:35.098Z,38.50
2022-08-05T17:03:15.120Z,38.34
2022-08-05T17:05:51.747Z,37.93
2022-08-05T17:08:33.425Z,38.09
2022-08-05T17:11:12.524Z,37.96
2022-08-05T17:13:45.298Z,37.81
2022-08-05T17:16:29.940Z,37.77
2022-08-05T17:19:00.587Z,37.63
2022-08-05T17:21:35.284Z,37.40
2022-08-05T17:24:28.419Z,37.31
2022-08-05T17:26:57.157Z,37.13
2022-08-05T17:29:33.973Z,36.87
2022-08-05T17:32:16.785Z,36.30
2022-08-05T17:34:47.767Z,35.04
2022-08-05T17:37:40.865Z,34.50
2022-08-05T17:40:10.600Z,34.02
2022-08-05T17:42:41.580Z,33.37
2022-08-05T17:45:21.301Z,32.98
2022-08-05T17:47:54.609Z,32.60
2022-08-05T17:50:28.558Z,32.37
2022-08-05T17:52:58.960Z,32.25
2022-08-05T17:55:34.547Z,32.07
2022-08-05T17:58:12.931Z,31.98
2022-08-05T18:00:45.396Z,31.59
2022-08-05T18:03:39.211Z,31.60
2022-08-05T18:06:10.867Z,31.51
2022-08-05T18:08:44.490Z,31.45
2022-08-05T18:11:24.793Z,31.27
2022-08-05T18:14:07.110Z,31.10
2022-08-05T18:16:46.780Z,30.89
2022-08-05T18:19:22.538Z,30.71
2022-08-05T18:22:08.547Z,30.66
2022-08-05T18:24:39.637Z,30.51
2022-08-05T18:27:18.162Z,30.40
2022-08-05T18:29:51.952Z,30.22
2022-08-05T18:32:21.023Z,30.08
2022-08-05T18:34:56.444Z,29.92
2022-08-05T18:37:33.368Z,29.70
2022-08-05T18:41:50.292Z,29.56
2022-08-05T18:42:49.461Z,29.37
2022-08-05T18:45:19.908Z,29.18
2022-08-05T18:47:51.518Z,29.06
2022-08-05T18:50:46.438Z,29.01
2022-08-05T18:53:22.200Z,28.92
2022-08-05T18:55:52.014Z,28.80
2022-08-05T18:58:27.379Z,28.65
2022-08-05T19:00:56.923Z,28.47
2022-08-05T19:03:54.987Z,28.33
2022-08-05T19:06:21.885Z,28.28
2022-08-05T19:08:52.225Z,28.24
2022-08-05T19:11:28.042Z,27.96
2022-08-05T19:14:01.212Z,27.78
2022-08-05T19:16:47.185Z,27.65
2022-08-05T19:19:14.671Z,27.73
2022-08-05T19:21:48.122Z,27.50
2022-08-05T19:24:18.652Z,27.34
2022-08-05T19:27:03.958Z,27.26
2022-08-05T19:29:36.433Z,27.26
2022-08-05T19:32:08.626Z,27.20
2022-08-05T19:34:41.995Z,27.15
2022-08-05T19:37:29.928Z,27.04
2022-08-05T19:40:13.421Z,26.95
2022-08-05T19:42:42.699Z,26.87
2022-08-05T19:45:30.474Z,26.76
2022-08-05T19:48:01.119Z,26.66
2022-08-05T19:50:28.743Z,26.64
2022-08-05T19:52:56.866Z,26.60
2022-08-05T19:56:14.843Z,26.52
2022-08-05T19:58:29.410Z,26.43
2022-08-05T20:00:58.084Z,26.35
2022-08-05T20:03:26.414Z,26.27
2022-08-05T20:05:56.635Z,26.20
2022-08-05T20:08:25.249Z,26.12
2022-08-05T20:10:53.654Z,26.04
2022-08-05T20:13:30.218Z,25.99
2022-08-05T20:16:09.916Z,25.92
2022-08-05T20:18:37.843Z,25.82
2022-08-05T20:21:06.959Z,25.70
2022-08-05T20:23:39.726Z,25.57
2022-08-05T20:26:24.801Z,25.51
2022-08-05T20:28:56.914Z,25.47
2022-08-05T20:31:28.578Z,25.38
2022-08-05T20:34:09.372Z,25.35
2022-08-05T20:36:36.534Z,25.26
2022-08-05T20:39:06.298Z,25.21
2022-08-05T20:41:43.958Z,25.15
2022-08-05T20:44:17.722Z,25.09
2022-08-05T20:46:48.083Z,25.04
2022-08-05T20:49:24.050Z,25.01
2022-08-05T20:51:53.651Z,25.23
2022-08-05T20:54:21.647Z,25.74
2022-08-05T20:56:49.118Z,26.12
2022-08-05T20:59:19.115Z,26.38
2022-08-05T21:01:53.759Z,26.67
2022-08-05T21:04:27.103Z,26.81
2022-08-05T21:06:55.046Z,26.87
2022-08-05T21:09:23.040Z,26.89
2022-08-05T21:12:10.654Z,26.93
2022-08-05T21:14:38.900Z,26.87
2022-08-05T21:17:06.598Z,26.87
2022-08-05T21:19:46.955Z,26.76
2022-08-05T21:22:18.447Z,26.66
2022-08-05T21:24:51.516Z,26.68
2022-08-05T21:27:25.317Z,26.72
2022-08-05T21:29:58.234Z,26.66
2022-08-05T21:32:29.476Z,26.60
2022-08-05T21:35:08.461Z,26.48
2022-08-05T21:37:52.781Z,26.51
2022-08-05T21:40:23.128Z,26.51
2022-08-05T21:42:53.586Z,26.54
2022-08-05T21:45:24.819Z,26.49
2022-08-05T21:48:09.679Z,26.45
2022-08-05T21:50:37.401Z,26.30
2022-08-05T21:53:16.448Z,26.16
2022-08-05T21:56:05.394Z,26.20
2022-08-05T21:58:32.832Z,26.11
2022-08-05T22:01:00.772Z,26.12
2022-08-05T22:03:51.899Z,26.31
2022-08-05T22:06:22.471Z,26.25
2022-08-05T22:08:51.829Z,26.14
2022-08-05T22:11:34.572Z,26.16
2022-08-05T22:14:35.793Z,26.16
2022-08-05T22:16:56.984Z,26.09
2022-08-05T22:20:01.088Z,25.95
2022-08-05T22:22:15.972Z,25.96
2022-08-05T22:25:01.681Z,26.05
2022-08-05T22:28:09.825Z,25.97
2022-08-05T22:30:34.919Z,25.77
2022-08-05T22:33:04.227Z,25.71
2022-08-05T22:35:48.575Z,25.71
2022-08-05T22:38:16.966Z,25.61
2022-08-05T22:40:49.770Z,25.64
2022-08-05T22:43:36.944Z,25.61
2022-08-05T22:46:13.285Z,25.49
2022-08-05T22:48:50.323Z,25.46
2022-08-05T22:51:23.339Z,25.38
2022-08-05T22:54:05.105Z,25.28
2022-08-05T22:56:32.566Z,25.21
2022-08-05T22:59:03.963Z,25.12
2022-08-05T23:02:04.178Z,25.02
2022-08-05T23:04:33.727Z,24.92
2022-08-05T23:07:01.451Z,24.79
2022-08-05T23:09:57.280Z,24.70
2022-08-05T23:12:17.922Z,24.62
2022-08-05T23:14:45.233Z,24.64
2022-08-05T23:17:34.229Z,24.56
2022-08-05T23:20:16.616Z,24.51
2022-08-05T23:22:48.505Z,24.44
2022-08-05T23:25:53.363Z,24.40
2022-08-05T23:28:07.214Z,24.33
2022-08-05T23:30:39.579Z,24.21
2022-08-05T23:33:08.678Z,24.12
2022-08-05T23:35:50.729Z,24.03
2022-08-05T23:38:18.358Z,23.99
2022-08-05T23:40:50.204Z,23.96
2022-08-05T23:43:24.772Z,23.97
2022-08-05T23:46:03.998Z,23.98
2022-08-05T23:48:31.342Z,23.98
2022-08-05T23:50:58.624Z,23.96
2022-08-05T23:53:46.183Z,23.91
2022-08-05T23:56:13.968Z,23.89
2022-08-05T23:58:47.237Z,23.84
